createdAt,value
2022-11-15T00:01:29.534Z,100.00
2022-11-15T00:04:15.375Z,100.00
2022-11-15T00:07:01.039Z,100.00
2022-11-15T00:09:46.548Z,100.00
2022-11-15T00:12:32.390Z,100.00
2022-11-15T00:15:17.929Z,100.00
2022-11-15T00:18:04.621Z,100.00
2022-11-15T00:20:50.503Z,100.00
2022-11-15T00:23:36.954Z,100.00
2022-11-15T00:26:22.327Z,100.00
2022-11-15T00:29:08.328Z,100.00
2022-11-15T00:31:53.862Z,100.00
2022-11-15T00:34:39.263Z,100.00
2022-11-15T00:37:25.018Z,100.00
2022-11-15T00:40:11.411Z,100.00
2022-11-15T00:42:57.315Z,100.00
2022-11-15T00:45:42.680Z,100.00
2022-11-15T00:48:28.314Z,100.00
2022-11-15T00:51:13.805Z,100.00
2022-11-15T00:53:59.614Z,100.00
2022-11-15T00:56:45.119Z,100.00
2022-11-15T00:59:30.697Z,100.00
2022-11-15T01:02:16.417Z,100.00
2022-11-15T01:05:02.123Z,100.00
2022-11-15T01:07:47.611Z,100.00
2022-11-15T01:10:33.149Z,100.00
2022-11-15T01:13:18.498Z,100.00
2022-11-15T01:16:12.046Z,100.00
2022-11-15T01:18:57.684Z,100.00
2022-11-15T01:21:43.127Z,100.00
2022-11-15T01:24:28.438Z,100.00
2022-11-15T01:27:14.200Z,100.00
2022-11-15T01:29:59.953Z,100.00
2022-11-15T01:32:45.190Z,100.00
2022-11-15T01:35:30.070Z,100.00
2022-11-15T01:38:15.933Z,100.00
2022-11-15T01:41:01.759Z,100.00
2022-11-15T01:43:50.434Z,100.00
2022-11-15T01:46:37.175Z,100.00
2022-11-15T01:49:24.646Z,100.00
2022-11-15T01:52:18.964Z,100.00
2022-11-15T01:55:07.461Z,100.00
2022-11-15T01:57:56.251Z,100.00
2022-11-15T02:00:42.021Z,100.00
2022-11-15T02:03:36.847Z,100.00
2022-11-15T02:06:23.040Z,100.00
2022-11-15T02:09:08.803Z,100.00
2022-11-15T02:11:56.268Z,100.00
2022-11-15T02:14:44.052Z,100.00
2022-11-15T02:17:44.716Z,100.00
2022-11-15T02:20:36.014Z,100.00
2022-11-15T02:23:42.800Z,100.00
2022-11-15T02:26:59.299Z,100.00
2022-11-15T02:29:44.584Z,100.00
2022-11-15T02:33:02.525Z,100.00
2022-11-15T02:35:59.465Z,100.00
2022-11-15T02:39:01.152Z,100.00
2022-11-15T02:41:57.920Z,100.00
2022-11-15T02:44:47.242Z,100.00
2022-11-15T02:47:35.283Z,100.00
2022-11-15T02:50:25.721Z,100.00
2022-11-15T02:53:11.476Z,100.00
2022-11-15T02:55:58.493Z,100.00
2022-11-15T02:59:06.384Z,100.00
2022-11-15T03:02:04.226Z,100.00
2022-11-15T03:05:03.995Z,100.00
2022-11-15T03:08:03.504Z,100.00
2022-11-15T03:11:15.775Z,100.00
2022-11-15T03:14:04.253Z,100.00
2022-11-15T03:16:56.148Z,100.00
2022-11-15T03:19:44.904Z,100.00
2022-11-15T03:22:43.606Z,100.00
2022-11-15T03:25:31.016Z,100.00
2022-11-15T03:28:23.413Z,100.00
2022-11-15T03:31:29.842Z,100.00
2022-11-15T03:34:45.137Z,100.00
2022-11-15T03:37:45.259Z,100.00
2022-11-15T03:40:38.101Z,100.00
2022-11-15T03:43:45.584Z,100.00
2022-11-15T03:46:41.126Z,100.00
2022-11-15T03:49:32.211Z,100.00
2022-11-15T03:52:22.918Z,100.00
2022-11-15T03:55:11.767Z,100.00
2022-11-15T03:58:00.656Z,100.00
2022-11-15T04:00:45.966Z,100.00
2022-11-15T04:03:31.868Z,100.00
2022-11-15T04:06:17.358Z,100.00
2022-11-15T04:09:02.815Z,100.00
2022-11-15T04:11:48.772Z,100.00
2022-11-15T04:14:34.240Z,100.00
2022-11-15T04:17:19.927Z,100.00
2022-11-15T04:20:30.446Z,100.00
2022-11-15T04:23:36.978Z,100.00
2022-11-15T04:26:24.798Z,100.00
2022-11-15T04:29:28.848Z,100.00
2022-11-15T04:32:14.347Z,100.00
2022-11-15T04:35:00.044Z,100.00
2022-11-15T04:37:49.255Z,100.00
2022-11-15T04:40:35.957Z,100.00
2022-11-15T04:43:21.866Z,100.00
2022-11-15T04:46:07.432Z,100.00
2022-11-15T04:48:58.225Z,100.00
2022-11-15T04:51:44.563Z,100.00
2022-11-15T04:54:30.165Z,100.00
2022-11-15T04:57:15.992Z,100.00
2022-11-15T05:00:01.696Z,100.00
2022-11-15T05:03:05.376Z,100.00
2022-11-15T05:05:50.876Z,100.00
2022-11-15T05:08:37.571Z,100.00
2022-11-15T05:11:23.732Z,100.00
2022-11-15T05:14:09.273Z,100.00
2022-11-15T05:16:54.678Z,100.00
2022-11-15T05:19:40.957Z,100.00
2022-11-15T05:22:26.398Z,100.00
2022-11-15T05:25:11.900Z,100.00
2022-11-15T05:27:57.342Z,100.00
2022-11-15T05:30:43.132Z,100.00
2022-11-15T05:33:29.078Z,100.00
2022-11-15T05:36:38.887Z,100.00
2022-11-15T05:39:24.608Z,100.00
2022-11-15T05:42:16.208Z,100.00
2022-11-15T05:45:06.530Z,100.00
2022-11-15T05:47:53.589Z,100.00
2022-11-15T05:50:44.153Z,100.00
2022-11-15T05:53:30.999Z,100.00
2022-11-15T05:56:17.229Z,100.00
2022-11-15T05:59:04.035Z,100.00
2022-11-15T06:01:50.081Z,100.00
2022-11-15T06:04:35.611Z,100.00
2022-11-15T06:07:21.308Z,100.00
2022-11-15T06:10:08.804Z,100.00
2022-11-15T06:13:02.261Z,100.00
2022-11-15T06:15:47.768Z,100.00
2022-11-15T06:18:34.781Z,100.00
2022-11-15T06:21:20.173Z,100.00
2022-11-15T06:24:06.863Z,100.00
2022-11-15T06:26:52.691Z,100.00
2022-11-15T06:29:38.279Z,100.00
2022-11-15T06:32:24.192Z,100.00
2022-11-15T06:35:10.007Z,100.00
2022-11-15T06:37:55.740Z,100.00
2022-11-15T06:40:41.066Z,100.00
2022-11-15T06:43:26.759Z,100.00
2022-11-15T06:46:12.596Z,100.00
2022-11-15T06:48:57.866Z,100.00
2022-11-15T06:51:43.446Z,100.00
2022-11-15T06:54:29.349Z,100.00
2022-11-15T06:57:14.809Z,100.00
2022-11-15T07:00:00.230Z,100.00
2022-11-15T07:02:45.771Z,100.00
2022-11-15T07:05:31.553Z,100.00
2022-11-15T07:08:17.277Z,100.00
2022-11-15T07:11:06.639Z,100.00
2022-11-15T07:13:52.319Z,100.00
2022-11-15T07:16:38.498Z,100.00
2022-11-15T07:19:24.181Z,100.00
2022-11-15T07:22:09.817Z,100.00
2022-11-15T07:24:55.150Z,100.00
2022-11-15T07:27:41.294Z,100.00
2022-11-15T07:30:28.415Z,100.00
2022-11-15T07:33:13.796Z,100.00
2022-11-15T07:36:06.129Z,100.00
2022-11-15T07:38:51.386Z,100.00
2022-11-15T07:41:47.371Z,100.00
2022-11-15T07:44:33.073Z,100.00
2022-11-15T07:47:18.590Z,100.00
2022-11-15T07:50:04.405Z,100.00
2022-11-15T07:52:54.676Z,100.00
2022-11-15T07:55:42.150Z,100.00
2022-11-15T07:58:27.930Z,100.00
2022-11-15T08:01:14.537Z,100.00
2022-11-15T08:04:00.545Z,100.00
2022-11-15T08:06:46.043Z,100.00
2022-11-15T08:09:31.769Z,99.99
2022-11-15T08:12:17.395Z,98.31
2022-11-15T08:15:04.034Z,98.06
2022-11-15T08:18:05.172Z,98.87
2022-11-15T08:20:50.785Z,99.46
2022-11-15T08:23:36.428Z,98.29
2022-11-15T08:26:21.788Z,98.67
2022-11-15T08:29:09.782Z,99.78
2022-11-15T08:31:59.204Z,99.48
2022-11-15T08:34:45.365Z,99.52
2022-11-15T08:37:31.114Z,99.02
2022-11-15T08:40:16.925Z,99.52
2022-11-15T08:43:04.192Z,99.80
2022-11-15T08:45:50.048Z,99.55
2022-11-15T08:48:35.517Z,99.35
2022-11-15T08:51:23.894Z,99.68
2022-11-15T08:54:09.874Z,99.83
2022-11-15T08:56:55.666Z,100.00
2022-11-15T08:59:41.248Z,99.53
2022-11-15T09:02:27.272Z,99.09
2022-11-15T09:05:12.856Z,99.03
2022-11-15T09:07:58.609Z,99.02
2022-11-15T09:10:44.061Z,99.31
2022-11-15T09:13:29.555Z,99.62
2022-11-15T09:16:16.317Z,99.00
2022-11-15T09:19:02.079Z,98.35
2022-11-15T09:21:47.781Z,98.83
2022-11-15T09:24:33.528Z,99.08
2022-11-15T09:27:19.559Z,97.96
2022-11-15T09:30:06.294Z,97.28
2022-11-15T09:32:52.049Z,97.23
2022-11-15T09:35:37.827Z,98.25
2022-11-15T09:38:23.098Z,98.24
2022-11-15T09:41:14.995Z,98.43
2022-11-15T09:44:12.337Z,97.54
2022-11-15T09:47:06.443Z,96.38
2022-11-15T09:49:59.535Z,96.00
2022-11-15T09:52:37.098Z,95.82
2022-11-15T09:55:07.027Z,96.21
2022-11-15T09:57:45.736Z,95.47
2022-11-15T10:00:46.644Z,94.49
2022-11-15T10:03:14.753Z,93.64
2022-11-15T10:05:51.278Z,92.51
2022-11-15T10:08:51.276Z,92.39
2022-11-15T10:11:37.661Z,92.34
2022-11-15T10:14:22.223Z,92.96
2022-11-15T10:17:07.231Z,92.47
2022-11-15T10:19:43.795Z,93.50
2022-11-15T10:22:30.518Z,93.35
2022-11-15T10:25:27.920Z,92.98
2022-11-15T10:28:07.691Z,92.40
2022-11-15T10:31:02.726Z,92.16
2022-11-15T10:33:37.512Z,92.08
2022-11-15T10:36:09.764Z,92.06
2022-11-15T10:38:49.142Z,92.67
2022-11-15T10:41:23.665Z,92.30
2022-11-15T10:44:12.046Z,91.19
2022-11-15T10:46:49.107Z,90.48
2022-11-15T10:49:22.088Z,91.42
2022-11-15T10:51:52.862Z,92.55
2022-11-15T10:54:28.982Z,92.81
2022-11-15T10:57:00.004Z,91.90
2022-11-15T10:59:38.981Z,91.49
2022-11-15T11:02:24.323Z,91.00
2022-11-15T11:04:52.405Z,90.42
2022-11-15T11:07:25.365Z,90.10
2022-11-15T11:10:49.846Z,89.67
2022-11-15T11:13:24.709Z,89.93
2022-11-15T11:16:15.097Z,89.97
2022-11-15T11:18:50.723Z,89.03
2022-11-15T11:21:32.951Z,88.86
2022-11-15T11:24:15.744Z,88.69
2022-11-15T11:27:19.758Z,88.79
2022-11-15T11:30:17.222Z,88.27
2022-11-15T11:33:17.346Z,88.47
2022-11-15T11:36:02.896Z,88.58
2022-11-15T11:38:51.694Z,88.93
2022-11-15T11:41:45.290Z,88.13
2022-11-15T11:44:26.220Z,88.99
2022-11-15T11:46:59.126Z,88.53
2022-11-15T11:49:37.135Z,87.87
2022-11-15T11:52:13.265Z,87.58
2022-11-15T11:54:58.681Z,87.45
2022-11-15T11:57:40.733Z,87.33
2022-11-15T12:00:21.468Z,87.82
2022-11-15T12:02:58.879Z,87.50
2022-11-15T12:05:37.865Z,87.79
2022-11-15T12:08:22.897Z,88.11
2022-11-15T12:10:58.871Z,87.63
2022-11-15T12:13:30.146Z,87.72
2022-11-15T12:16:18.555Z,87.20
2022-11-15T12:18:50.761Z,87.17
2022-11-15T12:21:28.715Z,86.62
2022-11-15T12:24:05.397Z,86.74
2022-11-15T12:26:49.194Z,86.56
2022-11-15T12:29:24.992Z,86.42
2022-11-15T12:31:57.511Z,86.34
2022-11-15T12:34:36.440Z,85.67
2022-11-15T12:37:45.462Z,85.87
2022-11-15T12:40:21.751Z,85.93
2022-11-15T12:43:32.086Z,85.66
2022-11-15T12:46:04.888Z,85.45
2022-11-15T12:48:37.783Z,85.12
2022-11-15T12:51:05.443Z,84.77
2022-11-15T12:53:34.328Z,84.75
2022-11-15T12:56:07.566Z,84.75
2022-11-15T12:58:53.439Z,84.39
2022-11-15T13:01:36.326Z,84.32
2022-11-15T13:04:22.410Z,83.92
2022-11-15T13:06:51.067Z,84.31
2022-11-15T13:09:30.495Z,84.11
2022-11-15T13:11:59.584Z,83.87
2022-11-15T13:14:38.760Z,83.83
2022-11-15T13:17:38.760Z,83.92
2022-11-15T13:20:09.040Z,83.98
2022-11-15T13:23:00.566Z,83.79
2022-11-15T13:25:36.942Z,83.97
2022-11-15T13:28:10.937Z,84.11
2022-11-15T13:30:38.926Z,84.01
2022-11-15T13:33:17.607Z,83.98
2022-11-15T13:35:49.079Z,83.26
2022-11-15T13:38:25.230Z,83.67
2022-11-15T13:40:52.395Z,83.42
2022-11-15T13:43:22.391Z,83.48
2022-11-15T13:46:10.630Z,83.54
2022-11-15T13:48:38.730Z,83.20
2022-11-15T13:51:20.718Z,83.13
2022-11-15T13:53:54.547Z,83.48
2022-11-15T13:56:22.297Z,83.25
2022-11-15T13:58:49.699Z,83.33
2022-11-15T14:01:21.000Z,83.11
2022-11-15T14:03:56.627Z,83.25
2022-11-15T14:06:26.076Z,82.89
2022-11-15T14:09:04.597Z,83.20
2022-11-15T14:11:32.099Z,83.34
2022-11-15T14:14:14.067Z,84.56
2022-11-15T14:16:49.768Z,83.96
2022-11-15T14:19:22.772Z,83.70
2022-11-15T14:22:14.903Z,83.81
2022-11-15T14:24:47.470Z,84.11
2022-11-15T14:27:33.425Z,84.17
2022-11-15T14:30:01.063Z,84.07
2022-11-15T14:32:31.215Z,84.09
2022-11-15T14:35:03.161Z,84.27
2022-11-15T14:37:35.125Z,84.67
2022-11-15T14:40:05.307Z,84.62
2022-11-15T14:42:32.884Z,84.89
2022-11-15T14:44:59.876Z,85.15
2022-11-15T14:47:26.958Z,85.56
2022-11-15T14:49:53.804Z,85.51
2022-11-15T14:52:36.651Z,86.74
2022-11-15T14:55:12.911Z,86.87
2022-11-15T14:57:40.319Z,87.51
2022-11-15T15:00:09.947Z,88.27
2022-11-15T15:02:41.666Z,88.38
2022-11-15T15:05:20.249Z,88.83
2022-11-15T15:07:47.931Z,89.14
2022-11-15T15:13:03.787Z,89.94
2022-11-15T15:15:36.889Z,89.94
2022-11-15T15:18:05.876Z,89.74
2022-11-15T15:20:33.697Z,89.66
2022-11-15T15:23:00.847Z,89.76
2022-11-15T15:25:35.962Z,89.55
2022-11-15T15:28:04.286Z,89.41
2022-11-15T15:30:31.844Z,89.50
2022-11-15T15:32:58.943Z,89.48
2022-11-15T15:35:30.520Z,89.70
2022-11-15T15:37:57.834Z,89.54
2022-11-15T15:40:26.485Z,89.72
2022-11-15T15:42:53.743Z,89.52
2022-11-15T15:45:22.038Z,89.57
2022-11-15T15:47:50.557Z,90.04
2022-11-15T15:50:47.021Z,90.32
2022-11-15T15:53:14.630Z,90.64
2022-11-15T15:55:41.888Z,90.64
2022-11-15T15:58:09.407Z,91.33
2022-11-15T16:00:36.961Z,92.00
2022-11-15T16:03:04.318Z,92.08
2022-11-15T16:05:31.362Z,92.42
2022-11-15T16:07:58.397Z,92.51
2022-11-15T16:10:31.072Z,92.96
2022-11-15T16:12:58.908Z,92.92
2022-11-15T16:15:30.690Z,93.43
2022-11-15T16:18:00.633Z,93.29
2022-11-15T16:20:35.278Z,93.60
2022-11-15T16:23:08.655Z,94.11
2022-11-15T16:25:56.964Z,93.88
2022-11-15T16:28:29.681Z,93.72
2022-11-15T16:31:07.242Z,93.54
2022-11-15T16:33:34.652Z,93.27
2022-11-15T16:36:02.480Z,93.64
2022-11-15T16:38:29.688Z,93.79
2022-11-15T16:40:56.733Z,94.06
2022-11-15T16:43:23.992Z,93.73
2022-11-15T16:45:51.642Z,93.68
2022-11-15T16:48:28.776Z,94.19
2022-11-15T16:50:59.618Z,94.23
2022-11-15T16:53:27.820Z,94.23
2022-11-15T16:55:58.120Z,94.38
2022-11-15T16:58:25.435Z,94.58
2022-11-15T17:00:54.027Z,94.41
2022-11-15T17:03:22.133Z,94.81
2022-11-15T17:05:49.720Z,94.98
2022-11-15T17:08:16.842Z,95.22
2022-11-15T17:10:44.294Z,95.08
2022-11-15T17:13:14.473Z,95.28
2022-11-15T17:15:41.565Z,95.53
2022-11-15T17:18:13.118Z,95.80
2022-11-15T17:20:40.968Z,96.43
2022-11-15T17:23:14.563Z,96.28
2022-11-15T17:25:41.779Z,96.06
2022-11-15T17:28:08.722Z,95.84
2022-11-15T17:30:35.956Z,96.02
2022-11-15T17:33:02.994Z,96.20
2022-11-15T17:35:29.903Z,96.37
2022-11-15T17:37:56.851Z,96.69
2022-11-15T17:43:08.030Z,97.18
2022-11-15T17:45:35.237Z,97.17
2022-11-15T17:48:02.357Z,96.98
2022-11-15T17:50:29.422Z,96.93
2022-11-15T17:52:57.364Z,96.66
2022-11-15T17:55:24.226Z,96.63
2022-11-15T17:57:51.270Z,96.96
2022-11-15T18:00:20.940Z,97.26
2022-11-15T18:02:47.947Z,97.08
2022-11-15T18:05:14.895Z,97.07
2022-11-15T18:07:41.732Z,96.85
2022-11-15T18:10:10.415Z,96.87
2022-11-15T18:12:37.553Z,97.40
2022-11-15T18:15:05.007Z,97.57
2022-11-15T18:17:32.169Z,97.35
2022-11-15T18:19:59.279Z,97.45
2022-11-15T18:22:26.339Z,98.11
2022-11-15T18:24:53.462Z,97.91
2022-11-15T18:27:20.473Z,98.11
2022-11-15T18:29:47.291Z,98.16
2022-11-15T18:32:17.877Z,98.41
2022-11-15T18:34:44.842Z,98.40
2022-11-15T18:37:11.963Z,98.49
2022-11-15T18:39:38.877Z,98.08
2022-11-15T18:42:06.038Z,98.20
2022-11-15T18:44:32.964Z,98.35
2022-11-15T18:47:00.048Z,98.68
2022-11-15T18:49:27.049Z,98.52
2022-11-15T18:51:54.013Z,98.85
2022-11-15T18:54:20.904Z,99.12
2022-11-15T18:56:48.098Z,98.79
2022-11-15T18:59:16.480Z,98.87
2022-11-15T19:01:48.756Z,98.98
2022-11-15T19:04:18.705Z,98.76
2022-11-15T19:06:50.537Z,98.82
2022-11-15T19:09:19.518Z,99.05
2022-11-15T19:11:48.175Z,99.03
2022-11-15T19:14:17.285Z,99.07
2022-11-15T19:16:50.183Z,99.05
2022-11-15T19:19:19.975Z,99.62
2022-11-15T19:21:47.550Z,99.72
2022-11-15T19:24:14.717Z,99.54
2022-11-15T19:26:41.834Z,99.86
2022-11-15T19:29:14.080Z,99.80
2022-11-15T19:31:42.163Z,99.58
2022-11-15T19:34:09.169Z,100.00
2022-11-15T19:36:44.027Z,100.00
2022-11-15T19:39:14.682Z,100.00
2022-11-15T19:41:44.156Z,100.00
2022-11-15T19:44:12.797Z,100.00
2022-11-15T19:46:40.750Z,100.00
2022-11-15T19:49:10.886Z,100.00
2022-11-15T19:51:39.128Z,100.00
2022-11-15T19:54:08.922Z,100.00
2022-11-15T19:56:37.349Z,100.00
2022-11-15T19:59:05.265Z,100.00
2022-11-15T20:01:39.291Z,100.00
2022-11-15T20:04:08.137Z,100.00
2022-11-15T20:06:40.601Z,100.00
2022-11-15T20:09:08.434Z,100.00
2022-11-15T20:11:38.192Z,100.00
2022-11-15T20:14:06.968Z,100.00
2022-11-15T20:16:33.943Z,100.00
2022-11-15T20:19:00.841Z,100.00
2022-11-15T20:21:28.209Z,100.00
2022-11-15T20:23:56.386Z,100.00
2022-11-15T20:26:23.653Z,100.00
2022-11-15T20:28:50.582Z,100.00
2022-11-15T20:31:17.992Z,100.00
2022-11-15T20:33:45.389Z,100.00
2022-11-15T20:36:15.728Z,100.00
2022-11-15T20:38:44.494Z,100.00
2022-11-15T20:41:12.641Z,100.00
2022-11-15T20:43:43.349Z,100.00
2022-11-15T20:46:11.982Z,100.00
2022-11-15T20:48:39.342Z,100.00
2022-11-15T20:51:14.483Z,100.00
2022-11-15T20:53:43.228Z,100.00
2022-11-15T20:56:16.394Z,100.00
2022-11-15T20:58:45.512Z,100.00
2022-11-15T21:01:15.124Z,100.00
2022-11-15T21:03:42.893Z,100.00
2022-11-15T21:06:11.288Z,100.00
2022-11-15T21:08:57.471Z,100.00
2022-11-15T21:11:43.672Z,100.00
2022-11-15T21:14:11.124Z,100.00
2022-11-15T21:16:39.060Z,100.00
2022-11-15T21:19:07.002Z,100.00
2022-11-15T21:21:35.701Z,100.00
2022-11-15T21:24:06.761Z,100.00
2022-11-15T21:26:35.045Z,100.00
2022-11-15T21:29:03.553Z,100.00
2022-11-15T21:31:34.635Z,100.00
2022-11-15T21:34:07.365Z,100.00
2022-11-15T21:36:34.703Z,100.00
2022-11-15T21:39:01.669Z,100.00
2022-11-15T21:41:28.601Z,100.00
2022-11-15T21:43:59.701Z,100.00
2022-11-15T21:46:27.126Z,100.00
2022-11-15T21:48:54.011Z,100.00
2022-11-15T21:51:20.942Z,100.00
2022-11-15T21:53:48.132Z,100.00
2022-11-15T21:56:15.903Z,100.00
2022-11-15T21:58:42.849Z,100.00
2022-11-15T22:01:29.901Z,100.00
2022-11-15T22:03:57.269Z,100.00
2022-11-15T22:06:24.634Z,100.00
2022-11-15T22:08:51.456Z,100.00
2022-11-15T22:11:18.572Z,100.00
2022-11-15T22:13:45.520Z,100.00
2022-11-15T22:16:12.494Z,100.00
2022-11-15T22:18:39.634Z,100.00
2022-11-15T22:21:12.723Z,100.00
2022-11-15T22:23:41.124Z,100.00
2022-11-15T22:26:10.378Z,100.00
2022-11-15T22:28:37.731Z,100.00
2022-11-15T22:31:04.931Z,100.00
2022-11-15T22:33:33.546Z,100.00
2022-11-15T22:36:00.759Z,100.00
2022-11-15T22:38:28.589Z,100.00
2022-11-15T22:40:56.561Z,100.00
2022-11-15T22:43:27.509Z,100.00
2022-11-15T22:45:56.092Z,100.00
2022-11-15T22:48:28.595Z,100.00
2022-11-15T22:50:56.492Z,100.00
2022-11-15T22:53:24.017Z,100.00
2022-11-15T22:55:53.993Z,100.00
2022-11-15T22:58:22.992Z,100.00
2022-11-15T23:00:55.893Z,100.00
2022-11-15T23:03:24.186Z,100.00
2022-11-15T23:05:51.749Z,100.00
2022-11-15T23:08:19.403Z,100.00
2022-11-15T23:11:05.145Z,100.00
2022-11-15T23:13:33.144Z,100.00
2022-11-15T23:16:25.902Z,100.00
2022-11-15T23:18:58.094Z,100.00
2022-11-15T23:21:52.231Z,100.00
2022-11-15T23:24:20.351Z,100.00
2022-11-15T23:26:49.080Z,100.00
2022-11-15T23:29:19.011Z,100.00
2022-11-15T23:32:05.071Z,100.00
2022-11-15T23:34:35.381Z,100.00
2022-11-15T23:37:02.277Z,100.00
2022-11-15T23:39:29.579Z,100.00
2022-11-15T23:41:56.563Z,100.00
2022-11-15T23:44:24.123Z,100.00
2022-11-15T23:46:51.221Z,100.00
2022-11-15T23:49:18.893Z,100.00
2022-11-15T23:51:45.780Z,100.00
2022-11-15T23:54:12.819Z,100.00
2022-11-15T23:56:40.633Z,100.00
2022-11-15T23:59:07.717Z,100.00
